sensor_id;sensor_type;location;lat;lon;timestamp;temperature;humidity
1524;DHT22;755;53.658;10.118;2022-07-19T00:06:04;16.50;99.90
1524;DHT22;755;53.658;10.118;2022-07-19T00:16:08;16.30;99.90
1524;DHT22;755;53.658;10.118;2022-07-19T00:26:10;16.40;99.90
1524;DHT22;755;53.658;10.118;2022-07-19T00:36:14;16.10;99.90
1524;DHT22;755;53.658;10.118;2022-07-19T00:46:17;16.00;99.90
1524;DHT22;755;53.658;10.118;2022-07-19T00:56:22;15.90;99.90
1524;DHT22;755;53.658;10.118;2022-07-19T01:06:26;15.70;99.90
1524;DHT22;755;53.658;10.118;2022-07-19T01:16:30;15.60;99.90
1524;DHT22;755;53.658;10.118;2022-07-19T01:26:37;15.30;99.90
1524;DHT22;755;53.658;10.118;2022-07-19T01:36:42;15.20;99.90
1524;DHT22;755;53.658;10.118;2022-07-19T01:46:46;15.20;99.90
1524;DHT22;755;53.658;10.118;2022-07-19T01:56:48;15.10;99.90
1524;DHT22;755;53.658;10.118;2022-07-19T02:18:20;14.80;99.90
1524;DHT22;755;53.658;10.118;2022-07-19T02:28:22;14.70;99.90
1524;DHT22;755;53.658;10.118;2022-07-19T02:38:26;14.60;99.90
1524;DHT22;755;53.658;10.118;2022-07-19T02:48:28;14.40;99.90
1524;DHT22;755;53.658;10.118;2022-07-19T02:58:31;14.20;99.90
1524;DHT22;755;53.658;10.118;2022-07-19T03:08:34;14.20;99.90
1524;DHT22;755;53.658;10.118;2022-07-19T03:18:37;14.30;99.90
1524;DHT22;755;53.658;10.118;2022-07-19T03:28:39;14.20;99.90
1524;DHT22;755;53.658;10.118;2022-07-19T03:38:42;14.10;99.90
1524;DHT22;755;53.658;10.118;2022-07-19T03:48:44;14.00;99.90
1524;DHT22;755;53.658;10.118;2022-07-19T03:58:48;14.00;99.90
1524;DHT22;755;53.658;10.118;2022-07-19T04:08:51;14.00;99.90
1524;DHT22;755;53.658;10.118;2022-07-19T04:18:54;14.00;99.90
1524;DHT22;755;53.658;10.118;2022-07-19T04:28:56;14.30;99.90
1524;DHT22;755;53.658;10.118;2022-07-19T04:38:59;14.50;99.90
1524;DHT22;755;53.658;10.118;2022-07-19T04:49:01;14.70;99.90
1524;DHT22;755;53.658;10.118;2022-07-19T04:59:05;14.80;99.90
1524;DHT22;755;53.658;10.118;2022-07-19T05:09:07;15.10;99.90
1524;DHT22;755;53.658;10.118;2022-07-19T05:19:11;15.40;99.90
1524;DHT22;755;53.658;10.118;2022-07-19T05:29:13;15.80;99.90
1524;DHT22;755;53.658;10.118;2022-07-19T05:39:16;16.20;99.90
1524;DHT22;755;53.658;10.118;2022-07-19T05:49:18;16.80;99.90
1524;DHT22;755;53.658;10.118;2022-07-19T05:59:22;17.40;99.90
1524;DHT22;755;53.658;10.118;2022-07-19T06:09:24;18.10;99.90
1524;DHT22;755;53.658;10.118;2022-07-19T06:19:30;18.60;99.90
1524;DHT22;755;53.658;10.118;2022-07-19T06:29:32;19.20;99.90
1524;DHT22;755;53.658;10.118;2022-07-19T06:39:35;19.70;85.10
1524;DHT22;755;53.658;10.118;2022-07-19T06:49:37;20.20;99.90
1524;DHT22;755;53.658;10.118;2022-07-19T06:59:41;20.80;99.90
1524;DHT22;755;53.658;10.118;2022-07-19T07:09:44;21.30;99.90
1524;DHT22;755;53.658;10.118;2022-07-19T07:19:47;21.80;99.90
1524;DHT22;755;53.658;10.118;2022-07-19T07:29:50;22.30;1.00
1524;DHT22;755;53.658;10.118;2022-07-19T07:39:53;22.90;99.90
1524;DHT22;755;53.658;10.118;2022-07-19T07:49:56;23.90;99.90
1524;DHT22;755;53.658;10.118;2022-07-19T07:59:59;24.60;1.00
1524;DHT22;755;53.658;10.118;2022-07-19T08:10:01;25.40;1.00
1524;DHT22;755;53.658;10.118;2022-07-19T08:20:07;25.90;1.00
1524;DHT22;755;53.658;10.118;2022-07-19T08:30:10;26.80;1.00
1524;DHT22;755;53.658;10.118;2022-07-19T08:40:14;27.30;1.00
1524;DHT22;755;53.658;10.118;2022-07-19T08:50:16;27.90;1.00
1524;DHT22;755;53.658;10.118;2022-07-19T09:00:19;28.30;1.00
1524;DHT22;755;53.658;10.118;2022-07-19T09:10:23;28.70;1.00
1524;DHT22;755;53.658;10.118;2022-07-19T09:20:27;29.40;99.90
1524;DHT22;755;53.658;10.118;2022-07-19T09:30:34;29.40;99.90
1524;DHT22;755;53.658;10.118;2022-07-19T09:40:39;29.90;99.90
1524;DHT22;755;53.658;10.118;2022-07-19T09:50:41;30.10;99.90
1524;DHT22;755;53.658;10.118;2022-07-19T10:00:45;30.20;99.90
1524;DHT22;755;53.658;10.118;2022-07-19T10:10:47;30.60;99.90
1524;DHT22;755;53.658;10.118;2022-07-19T10:20:50;30.80;99.90
1524;DHT22;755;53.658;10.118;2022-07-19T10:30:53;31.00;99.90
1524;DHT22;755;53.658;10.118;2022-07-19T10:40:56;30.70;99.90
1524;DHT22;755;53.658;10.118;2022-07-19T10:50:59;30.70;99.90
1524;DHT22;755;53.658;10.118;2022-07-19T11:01:14;31.00;99.90
1524;DHT22;755;53.658;10.118;2022-07-19T11:11:18;31.50;99.90
1524;DHT22;755;53.658;10.118;2022-07-19T11:21:22;30.90;99.90
1524;DHT22;755;53.658;10.118;2022-07-19T11:31:25;30.90;99.90
1524;DHT22;755;53.658;10.118;2022-07-19T11:41:29;31.30;99.90
1524;DHT22;755;53.658;10.118;2022-07-19T11:51:32;31.20;99.90
1524;DHT22;755;53.658;10.118;2022-07-19T12:01:37;31.50;99.90
1524;DHT22;755;53.658;10.118;2022-07-19T12:11:42;31.40;99.90
1524;DHT22;755;53.658;10.118;2022-07-19T12:21:46;31.80;99.90
1524;DHT22;755;53.658;10.118;2022-07-19T12:31:49;31.90;99.90
1524;DHT22;755;53.658;10.118;2022-07-19T12:41:58;32.20;99.90
1524;DHT22;755;53.658;10.118;2022-07-19T12:52:00;32.10;99.90
1524;DHT22;755;53.658;10.118;2022-07-19T13:02:03;32.30;99.90
1524;DHT22;755;53.658;10.118;2022-07-19T13:12:09;32.70;99.90
1524;DHT22;755;53.658;10.118;2022-07-19T13:22:13;33.20;99.90
1524;DHT22;755;53.658;10.118;2022-07-19T13:32:15;32.90;99.90
1524;DHT22;755;53.658;10.118;2022-07-19T13:42:18;33.40;99.90
1524;DHT22;755;53.658;10.118;2022-07-19T13:52:21;33.40;99.90
1524;DHT22;755;53.658;10.118;2022-07-19T14:02:24;33.80;99.90
1524;DHT22;755;53.658;10.118;2022-07-19T14:12:26;34.30;99.90
1524;DHT22;755;53.658;10.118;2022-07-19T14:22:31;34.60;99.90
1524;DHT22;755;53.658;10.118;2022-07-19T14:32:33;34.30;99.90
1524;DHT22;755;53.658;10.118;2022-07-19T14:42:36;34.30;99.90
1524;DHT22;755;53.658;10.118;2022-07-19T14:52:39;34.00;99.90
1524;DHT22;755;53.658;10.118;2022-07-19T15:02:43;33.00;99.90
1524;DHT22;755;53.658;10.118;2022-07-19T15:12:45;32.50;99.90
1524;DHT22;755;53.658;10.118;2022-07-19T15:22:48;32.50;99.90
1524;DHT22;755;53.658;10.118;2022-07-19T15:32:50;32.20;99.90
1524;DHT22;755;53.658;10.118;2022-07-19T15:42:53;32.00;99.90
1524;DHT22;755;53.658;10.118;2022-07-19T15:52:55;32.00;99.90
1524;DHT22;755;53.658;10.118;2022-07-19T16:03:00;31.80;99.90
1524;DHT22;755;53.658;10.118;2022-07-19T16:13:02;31.80;99.90
1524;DHT22;755;53.658;10.118;2022-07-19T16:23:07;31.70;99.90
1524;DHT22;755;53.658;10.118;2022-07-19T16:33:08;31.60;99.90
1524;DHT22;755;53.658;10.118;2022-07-19T16:43:12;31.40;99.90
1524;DHT22;755;53.658;10.118;2022-07-19T16:53:14;31.30;99.90
1524;DHT22;755;53.658;10.118;2022-07-19T17:03:17;31.10;99.90
1524;DHT22;755;53.658;10.118;2022-07-19T17:13:19;30.90;99.90
1524;DHT22;755;53.658;10.118;2022-07-19T17:23:23;30.70;99.90
1524;DHT22;755;53.658;10.118;2022-07-19T17:33:25;30.60;99.90
1524;DHT22;755;53.658;10.118;2022-07-19T17:43:29;30.40;99.90
1524;DHT22;755;53.658;10.118;2022-07-19T17:53:31;30.20;99.90
1524;DHT22;755;53.658;10.118;2022-07-19T18:03:34;29.90;99.90
1524;DHT22;755;53.658;10.118;2022-07-19T18:13:37;29.70;99.90
1524;DHT22;755;53.658;10.118;2022-07-19T18:23:40;29.40;99.90
1524;DHT22;755;53.658;10.118;2022-07-19T18:33:42;29.20;99.90
1524;DHT22;755;53.658;10.118;2022-07-19T18:43:45;28.70;99.90
1524;DHT22;755;53.658;10.118;2022-07-19T18:53:47;28.20;99.90
1524;DHT22;755;53.658;10.118;2022-07-19T19:03:51;28.00;99.90
1524;DHT22;755;53.658;10.118;2022-07-19T19:13:53;27.60;99.90
1524;DHT22;755;53.658;10.118;2022-07-19T19:23:56;27.30;99.90
1524;DHT22;755;53.658;10.118;2022-07-19T19:33:58;26.80;99.90
1524;DHT22;755;53.658;10.118;2022-07-19T19:44:03;26.50;99.90
1524;DHT22;755;53.658;10.118;2022-07-19T19:54:05;26.20;99.90
1524;DHT22;755;53.658;10.118;2022-07-19T20:04:09;25.80;99.90
1524;DHT22;755;53.658;10.118;2022-07-19T20:14:12;25.40;99.90
1524;DHT22;755;53.658;10.118;2022-07-19T20:24:16;25.20;99.90
1524;DHT22;755;53.658;10.118;2022-07-19T20:45:23;24.60;99.90
1524;DHT22;755;53.658;10.118;2022-07-19T20:55:25;24.40;99.90
1524;DHT22;755;53.658;10.118;2022-07-19T21:05:29;24.20;99.90
1524;DHT22;755;53.658;10.118;2022-07-19T21:15:31;23.90;99.90
1524;DHT22;755;53.658;10.118;2022-07-19T21:25:35;23.70;99.90
1524;DHT22;755;53.658;10.118;2022-07-19T21:35:38;23.40;99.90
1524;DHT22;755;53.658;10.118;2022-07-19T21:45:42;23.20;99.90
1524;DHT22;755;53.658;10.118;2022-07-19T21:55:44;22.90;99.90
1524;DHT22;755;53.658;10.118;2022-07-19T22:05:47;22.60;1.00
1524;DHT22;755;53.658;10.118;2022-07-19T22:15:50;22.40;1.00
1524;DHT22;755;53.658;10.118;2022-07-19T22:25:55;22.20;1.00
1524;DHT22;755;53.658;10.118;2022-07-19T22:35:57;22.00;1.00
1524;DHT22;755;53.658;10.118;2022-07-19T22:46:01;21.70;1.00
1524;DHT22;755;53.658;10.118;2022-07-19T22:56:09;21.70;1.00
1524;DHT22;755;53.658;10.118;2022-07-19T23:06:12;21.80;1.00
1524;DHT22;755;53.658;10.118;2022-07-19T23:16:15;21.70;1.00
1524;DHT22;755;53.658;10.118;2022-07-19T23:26:19;21.70;1.00
1524;DHT22;755;53.658;10.118;2022-07-19T23:36:21;21.80;1.00
1524;DHT22;755;53.658;10.118;2022-07-19T23:46:25;21.90;1.00
1524;DHT22;755;53.658;10.118;2022-07-19T23:56:28;21.80;1.00
